Time;durP1;ratioP1;P1;durP2;ratioP2;P2;SDS_P1;SDS_P2;PMS_P1;PMS_P2;Temp;Humidity;BMP_temperature;BMP_pressure;BME280_temperature;BME280_humidity;BME280_pressure;Samples;Min_cycle;Max_cycle;Signal;HPM_P1;HPM_P2
2022/11/27 00:02:17;;;;;;;12.30;7.80;;;;;;;2.02;100.00;97858.46;105112;1284;23861;-76
2022/11/27 00:04:49;;;;;;;13.80;8.50;;;;;;;2.00;100.00;97861.39;105131;1305;22480;-76
2022/11/27 00:07:20;;;;;;;14.90;7.90;;;;;;;2.02;100.00;97859.34;105075;1305;22517;-76
2022/11/27 00:09:54;;;;;;;11.70;6.60;;;;;;;2.00;100.00;97859.94;105123;1301;22437;-76
2022/11/27 00:12:25;;;;;;;12.10;7.30;;;;;;;1.94;100.00;97858.64;105135;1291;24421;-76
2022/11/27 00:14:57;;;;;;;11.20;7.40;;;;;;;1.89;100.00;97857.58;105167;1304;22771;-76
2022/11/27 00:17:29;;;;;;;12.00;7.60;;;;;;;1.85;100.00;97856.48;105228;1287;22527;-76
2022/11/27 00:20:01;;;;;;;12.10;7.80;;;;;;;1.83;100.00;97856.39;105125;1296;22492;-76
2022/11/27 00:22:33;;;;;;;11.30;7.00;;;;;;;1.85;100.00;97862.51;105140;1290;22484;-76
2022/11/27 00:25:04;;;;;;;15.90;9.20;;;;;;;1.86;100.00;97862.88;105089;1289;22607;-76
2022/11/27 00:27:38;;;;;;;13.00;8.00;;;;;;;1.88;100.00;97866.10;105095;1304;22642;-76
2022/11/27 00:30:12;;;;;;;11.90;7.80;;;;;;;1.89;100.00;97860.95;105113;1305;23198;-76
2022/11/27 00:32:43;;;;;;;10.80;7.40;;;;;;;1.87;100.00;97859.34;105286;1304;24226;-76
2022/11/27 00:35:15;;;;;;;12.60;8.10;;;;;;;1.84;100.00;97858.84;105090;1290;22600;-76
2022/11/27 00:37:46;;;;;;;14.70;9.50;;;;;;;1.79;100.00;97859.15;105099;1305;22597;-75
2022/11/27 00:40:18;;;;;;;13.40;8.20;;;;;;;1.81;100.00;97859.00;105130;1288;23222;-76
2022/11/27 00:42:49;;;;;;;14.90;10.00;;;;;;;1.84;100.00;97857.66;105144;1297;22485;-76
2022/11/27 00:45:22;;;;;;;15.50;10.00;;;;;;;1.86;100.00;97858.02;105060;1304;22484;-76
2022/11/27 00:47:54;;;;;;;16.20;9.60;;;;;;;1.86;100.00;97854.95;105088;1290;22485;-76
2022/11/27 00:50:30;;;;;;;14.80;9.40;;;;;;;1.87;100.00;97855.88;105167;1297;25922;-76
2022/11/27 00:53:04;;;;;;;12.50;8.50;;;;;;;1.88;100.00;97855.04;105147;1305;25440;-76
2022/11/27 00:55:35;;;;;;;13.80;9.30;;;;;;;1.84;100.00;97853.93;105072;1290;22459;-76
2022/11/27 00:58:06;;;;;;;14.70;9.90;;;;;;;1.82;100.00;97854.91;105097;1305;23233;-76
2022/11/27 01:00:38;;;;;;;15.30;9.20;;;;;;;1.82;100.00;97850.88;105261;1296;22546;-76
2022/11/27 01:03:09;;;;;;;16.20;10.80;;;;;;;1.82;100.00;97848.83;105203;1296;22472;-76
2022/11/27 01:05:43;;;;;;;13.00;8.90;;;;;;;1.78;100.00;97846.92;105187;1305;22554;-75
2022/11/27 01:08:18;;;;;;;14.20;8.80;;;;;;;1.77;100.00;97848.13;105121;1305;23409;-76
2022/11/27 01:10:54;;;;;;;13.40;9.40;;;;;;;1.73;100.00;97843.56;105157;1290;23991;-76
2022/11/27 01:13:28;;;;;;;12.40;9.10;;;;;;;1.70;100.00;97844.48;105148;1292;23943;-76
2022/11/27 01:16:05;;;;;;;12.80;8.30;;;;;;;1.69;100.00;97841.65;105178;1302;22518;-76
2022/11/27 01:18:38;;;;;;;15.70;9.20;;;;;;;1.72;100.00;97841.76;105181;1305;22519;-76
2022/11/27 01:21:09;;;;;;;12.50;7.20;;;;;;;1.76;100.00;97834.36;105115;1303;23648;-75
2022/11/27 01:23:41;;;;;;;12.50;8.40;;;;;;;1.74;100.00;97832.86;105155;1296;22488;-76
2022/11/27 01:26:16;;;;;;;12.40;7.90;;;;;;;1.70;100.00;97841.06;105174;1303;22962;-76
2022/11/27 01:28:48;;;;;;;10.00;6.80;;;;;;;1.70;100.00;97840.45;105142;1297;22519;-76
2022/11/27 01:31:21;;;;;;;10.40;7.50;;;;;;;1.70;100.00;97840.73;105179;1304;22460;-76
2022/11/27 01:33:56;;;;;;;10.20;7.10;;;;;;;1.69;100.00;97842.23;105226;1293;25011;-76
2022/11/27 01:36:28;;;;;;;10.80;7.40;;;;;;;1.67;100.00;97847.09;105074;1305;24872;-76
2022/11/27 01:39:00;;;;;;;10.40;7.40;;;;;;;1.69;100.00;97844.66;105117;1303;24156;-75
2022/11/27 01:41:33;;;;;;;12.10;8.70;;;;;;;1.73;100.00;97844.08;105099;1289;26008;-76
2022/11/27 01:44:19;;;;;;;13.40;8.30;;;;;;;1.79;100.00;97844.23;105123;1288;22493;-75
2022/11/27 01:46:53;;;;;;;10.60;8.20;;;;;;;1.81;100.00;97845.05;105051;1292;23891;-76
2022/11/27 01:49:30;;;;;;;9.90;6.60;;;;;;;1.82;100.00;97843.35;105093;1305;22484;-76
2022/11/27 01:52:06;;;;;;;10.80;7.30;;;;;;;1.78;100.00;97841.25;104538;1304;1072171;-75
2022/11/27 01:54:42;;;;;;;9.30;6.80;;;;;;;1.74;100.00;97841.80;105188;1288;22569;-76
2022/11/27 01:57:18;;;;;;;11.20;7.20;;;;;;;1.74;100.00;97841.95;105200;1304;23076;-76
2022/11/27 01:59:51;;;;;;;13.60;8.70;;;;;;;1.76;100.00;97844.22;105293;1303;25402;-76
2022/11/27 02:02:22;;;;;;;12.90;8.90;;;;;;;1.77;100.00;97841.02;105241;1296;23483;-76
2022/11/27 02:04:54;;;;;;;11.90;7.30;;;;;;;1.78;100.00;97841.73;105156;1282;22485;-76
2022/11/27 02:07:26;;;;;;;12.80;8.40;;;;;;;1.78;100.00;97839.84;105110;1293;22490;-75
2022/11/27 02:09:57;;;;;;;12.00;8.30;;;;;;;1.75;100.00;97839.35;105116;1303;22514;-76
2022/11/27 02:12:33;;;;;;;12.40;8.40;;;;;;;1.73;100.00;97844.48;105143;1303;22480;-76
2022/11/27 02:15:11;;;;;;;13.00;9.30;;;;;;;1.69;100.00;97845.83;105116;1305;22690;-76
2022/11/27 02:17:52;;;;;;;13.30;8.60;;;;;;;1.65;100.00;97851.02;105094;1305;25921;-76
2022/11/27 02:20:34;;;;;;;11.10;8.10;;;;;;;1.62;100.00;97849.55;105159;1305;22493;-76
2022/11/27 02:23:52;;;;;;;10.60;7.30;;;;;;;1.60;100.00;97850.06;105109;1297;25505;-76
2022/11/27 02:26:43;;;;;;;10.70;7.10;;;;;;;1.60;100.00;97852.69;105059;1304;22930;-76
2022/11/27 02:29:22;;;;;;;11.80;7.50;;;;;;;1.61;100.00;97851.95;105112;1303;22855;-76
2022/11/27 02:32:03;;;;;;;13.40;8.20;;;;;;;1.61;100.00;97849.07;105203;1301;22571;-76
2022/11/27 02:34:43;;;;;;;13.60;9.10;;;;;;;1.64;100.00;97849.48;105107;1304;22480;-75
2022/11/27 02:37:21;;;;;;;12.30;8.10;;;;;;;1.67;100.00;97846.77;105070;1297;22439;-75
2022/11/27 02:40:01;;;;;;;11.10;6.90;;;;;;;1.72;100.00;97848.98;105101;1304;23889;-76
2022/11/27 02:42:37;;;;;;;9.70;6.80;;;;;;;1.75;100.00;97849.61;105181;1286;22489;-76
2022/11/27 02:45:13;;;;;;;9.60;6.30;;;;;;;1.79;100.00;97850.23;105190;1288;22517;-76
2022/11/27 02:47:48;;;;;;;6.40;4.80;;;;;;;1.82;100.00;97852.58;105067;1305;23026;-75
2022/11/27 02:50:22;;;;;;;4.60;3.40;;;;;;;1.84;100.00;97855.06;105118;1305;22546;-76
2022/11/27 02:53:01;;;;;;;5.40;3.50;;;;;;;1.84;100.00;97856.35;105133;1304;22573;-76
2022/11/27 02:55:38;;;;;;;4.60;3.10;;;;;;;1.85;100.00;97859.61;105038;1288;22523;-76
2022/11/27 02:58:14;;;;;;;4.70;3.10;;;;;;;1.85;100.00;97859.37;105166;1296;22543;-76
2022/11/27 03:00:48;;;;;;;3.10;2.50;;;;;;;1.86;100.00;97859.73;105161;1304;22485;-75
2022/11/27 03:03:23;;;;;;;3.70;2.50;;;;;;;1.89;100.00;97860.67;105168;1288;22452;-76
2022/11/27 03:06:01;;;;;;;4.20;2.70;;;;;;;1.88;100.00;97864.89;105220;1279;24312;-76
2022/11/27 03:08:40;;;;;;;3.30;2.40;;;;;;;1.84;100.00;97868.45;105192;1293;25363;-76
2022/11/27 03:11:14;;;;;;;3.70;2.40;;;;;;;1.75;100.00;97865.41;105162;1305;24516;-76
2022/11/27 03:13:51;;;;;;;3.90;2.60;;;;;;;1.69;100.00;97870.59;105252;1293;23261;-75
2022/11/27 03:16:30;;;;;;;3.90;2.70;;;;;;;1.65;100.00;97872.33;105210;1291;24505;-76
2022/11/27 03:19:15;;;;;;;4.30;3.10;;;;;;;1.64;100.00;97874.90;105162;1305;22470;-76
2022/11/27 03:21:52;;;;;;;6.20;3.80;;;;;;;1.66;100.00;97871.33;105183;1304;25475;-76
2022/11/27 03:24:24;;;;;;;4.70;3.70;;;;;;;1.70;100.00;97871.73;105271;1305;24534;-76
2022/11/27 03:26:57;;;;;;;7.00;4.40;;;;;;;1.74;100.00;97871.76;105191;1305;22475;-76
2022/11/27 03:29:35;;;;;;;5.40;3.80;;;;;;;1.77;100.00;97873.63;105143;1305;22887;-76
2022/11/27 03:32:09;;;;;;;5.40;3.70;;;;;;;1.80;100.00;97873.77;105194;1289;23870;-76
2022/11/27 03:34:41;;;;;;;5.50;3.30;;;;;;;1.82;100.00;97874.90;105112;1305;22580;-76
2022/11/27 03:37:15;;;;;;;5.70;3.10;;;;;;;1.79;100.00;97875.65;105069;1290;25364;-76
2022/11/27 03:39:46;;;;;;;4.60;3.10;;;;;;;1.77;100.00;97871.17;105141;1281;24991;-76
2022/11/27 03:42:23;;;;;;;6.10;3.40;;;;;;;1.79;100.00;97872.67;105130;1304;22520;-76
2022/11/27 03:45:04;;;;;;;6.20;3.90;;;;;;;1.82;100.00;97872.00;105076;1291;25937;-76
2022/11/27 03:47:48;;;;;;;9.70;6.20;;;;;;;1.77;100.00;97873.59;105109;1296;25262;-76
2022/11/27 03:50:32;;;;;;;8.40;5.10;;;;;;;1.73;100.00;97877.75;105133;1296;22851;-76
2022/11/27 03:53:15;;;;;;;8.70;4.80;;;;;;;1.68;100.00;97880.60;105161;1296;22482;-75
2022/11/27 03:55:54;;;;;;;6.10;4.20;;;;;;;1.64;100.00;97883.95;105095;1296;22611;-76
2022/11/27 03:58:34;;;;;;;6.60;4.20;;;;;;;1.60;100.00;97884.81;105116;1298;22662;-76
2022/11/27 04:01:09;;;;;;;7.10;4.80;;;;;;;1.56;100.00;97888.31;105158;1303;22470;-76
2022/11/27 04:03:40;;;;;;;7.60;5.30;;;;;;;1.47;100.00;97887.77;105148;1273;23861;-76
2022/11/27 04:06:11;;;;;;;7.70;5.40;;;;;;;1.42;100.00;97884.59;105105;1297;22458;-76
2022/11/27 04:08:44;;;;;;;10.10;5.90;;;;;;;1.40;100.00;97885.35;105124;1291;22504;-76
2022/11/27 04:11:15;;;;;;;5.70;4.00;;;;;;;1.42;100.00;97882.38;105297;1304;22487;-76
2022/11/27 04:13:46;;;;;;;5.00;3.50;;;;;;;1.42;100.00;97883.55;105201;1281;22475;-76
2022/11/27 04:16:17;;;;;;;6.60;4.40;;;;;;;1.42;100.00;97882.70;105190;1304;33771;-76
2022/11/27 04:18:48;;;;;;;5.80;3.60;;;;;;;1.37;100.00;97885.34;105148;1296;25306;-76
2022/11/27 04:21:20;;;;;;;5.80;3.70;;;;;;;1.31;100.00;97885.62;105121;1289;22463;-76
2022/11/27 04:23:51;;;;;;;5.40;3.90;;;;;;;1.32;100.00;97884.14;105158;1295;22462;-76
2022/11/27 04:26:23;;;;;;;7.90;4.70;;;;;;;1.36;100.00;97883.44;105106;1296;23861;-76
2022/11/27 04:28:54;;;;;;;5.10;3.30;;;;;;;1.38;100.00;97882.69;105198;1296;22933;-75
2022/11/27 04:31:25;;;;;;;4.00;2.70;;;;;;;1.36;100.00;97880.27;105207;1304;22492;-76
2022/11/27 04:33:57;;;;;;;4.80;3.00;;;;;;;1.36;100.00;97882.52;105140;1305;25462;-76
2022/11/27 04:36:28;;;;;;;6.00;2.90;;;;;;;1.40;100.00;97879.62;105058;1305;24259;-76
2022/11/27 04:38:59;;;;;;;3.50;2.60;;;;;;;1.44;100.00;97880.90;105138;1293;23645;-76
2022/11/27 04:41:30;;;;;;;5.50;3.70;;;;;;;1.43;100.00;97878.36;105131;1305;24320;-76
2022/11/27 04:44:01;;;;;;;4.40;3.00;;;;;;;1.44;100.00;97883.08;105091;1305;24284;-76
2022/11/27 04:46:32;;;;;;;5.60;4.10;;;;;;;1.46;100.00;97878.31;105078;1304;22579;-76
2022/11/27 04:49:09;;;;;;;7.40;4.60;;;;;;;1.47;100.00;97875.55;105121;1297;22518;-76
2022/11/27 04:51:43;;;;;;;6.60;4.70;;;;;;;1.45;100.00;97878.83;105130;1281;22458;-76
2022/11/27 04:54:16;;;;;;;6.80;5.10;;;;;;;1.41;100.00;97881.36;105093;1305;22463;-76
2022/11/27 04:56:48;;;;;;;9.60;6.90;;;;;;;1.38;100.00;97881.36;105094;1304;25378;-76
2022/11/27 04:59:19;;;;;;;9.60;6.00;;;;;;;1.37;100.00;97879.43;105089;1305;22471;-75
2022/11/27 05:01:51;;;;;;;13.50;8.50;;;;;;;1.36;100.00;97876.48;105147;1304;22465;-76
2022/11/27 05:04:22;;;;;;;16.20;9.50;;;;;;;1.32;100.00;97873.48;105189;1281;22481;-76
2022/11/27 05:06:53;;;;;;;19.00;11.40;;;;;;;1.25;100.00;97872.97;105191;1305;22471;-76
2022/11/27 05:09:24;;;;;;;21.70;15.10;;;;;;;1.17;100.00;97872.80;105244;1299;22922;-76
2022/11/27 05:11:56;;;;;;;23.30;15.10;;;;;;;1.14;100.00;97865.94;105236;1304;22499;-76
2022/11/27 05:14:30;;;;;;;19.80;13.90;;;;;;;1.12;100.00;97871.93;105221;1281;23898;-76
2022/11/27 05:17:02;;;;;;;20.30;12.90;;;;;;;1.08;100.00;97872.67;105154;1302;22475;-76
2022/11/27 05:19:33;;;;;;;12.10;8.90;;;;;;;1.08;100.00;97871.41;105251;1281;22477;-76
2022/11/27 05:22:04;;;;;;;11.00;7.50;;;;;;;1.08;100.00;97866.66;105122;1303;22472;-76
2022/11/27 05:24:36;;;;;;;11.50;8.60;;;;;;;1.08;100.00;97867.35;105141;1282;22538;-76
2022/11/27 05:27:09;;;;;;;11.40;7.80;;;;;;;1.12;100.00;97870.56;105246;1296;22462;-76
2022/11/27 05:29:43;;;;;;;9.60;6.30;;;;;;;1.16;100.00;97871.95;105106;1287;22482;-76
2022/11/27 05:32:14;;;;;;;8.00;5.30;;;;;;;1.20;100.00;97872.85;105088;1290;22704;-76
2022/11/27 05:34:47;;;;;;;6.20;4.10;;;;;;;1.23;100.00;97875.93;105144;1277;24389;-76
2022/11/27 05:37:20;;;;;;;7.60;4.90;;;;;;;1.25;100.00;97878.31;105110;1304;22799;-76
2022/11/27 05:39:51;;;;;;;6.50;4.30;;;;;;;1.24;100.00;97876.22;105099;1305;22483;-76
2022/11/27 05:42:23;;;;;;;7.40;4.80;;;;;;;1.18;100.00;97879.83;105070;1304;22584;-76
2022/11/27 05:44:54;;;;;;;10.50;6.00;;;;;;;1.10;100.00;97883.28;105121;1284;22559;-76
2022/11/27 05:47:25;;;;;;;9.90;7.00;;;;;;;1.07;100.00;97887.35;105155;1288;24265;-76
2022/11/27 05:49:56;;;;;;;10.60;7.10;;;;;;;1.07;100.00;97888.80;105120;1305;23068;-76
2022/11/27 05:52:28;;;;;;;12.50;8.80;;;;;;;1.11;100.00;97895.18;105218;1290;22796;-76
2022/11/27 05:54:59;;;;;;;11.70;8.20;;;;;;;1.15;100.00;97898.21;105053;1288;22475;-76
2022/11/27 05:57:30;;;;;;;11.90;8.90;;;;;;;1.19;100.00;97897.68;105130;1304;22483;-76
2022/11/27 06:00:02;;;;;;;13.90;9.90;;;;;;;1.24;100.00;97897.23;105325;1297;22610;-76
2022/11/27 06:02:33;;;;;;;11.40;8.40;;;;;;;1.28;100.00;97899.02;105190;1304;22475;-76
2022/11/27 06:05:05;;;;;;;12.60;7.20;;;;;;;1.28;100.00;97895.88;105089;1303;24568;-76
2022/11/27 06:07:36;;;;;;;10.20;7.50;;;;;;;1.25;100.00;97895.64;105125;1304;23789;-76
2022/11/27 06:10:10;;;;;;;9.50;7.90;;;;;;;1.20;100.00;97893.52;105092;1303;22488;-76
2022/11/27 06:12:41;;;;;;;11.50;7.70;;;;;;;1.15;100.00;97893.14;105166;1293;22468;-76
2022/11/27 06:15:12;;;;;;;11.40;7.70;;;;;;;1.11;100.00;97897.27;105154;1297;22479;-76
2022/11/27 06:17:51;;;;;;;11.20;8.20;;;;;;;1.08;100.00;97892.87;105140;1297;22481;-76
2022/11/27 06:20:25;;;;;;;10.30;8.00;;;;;;;1.05;100.00;97892.92;105239;1304;22529;-76
2022/11/27 06:22:57;;;;;;;11.20;8.00;;;;;;;1.07;100.00;97892.41;105158;1290;25269;-76
2022/11/27 06:25:28;;;;;;;11.90;8.20;;;;;;;1.10;100.00;97887.66;105234;1303;25278;-76
2022/11/27 06:28:00;;;;;;;11.60;8.30;;;;;;;1.15;100.00;97887.55;105110;1303;22622;-76
2022/11/27 06:30:31;;;;;;;11.60;8.10;;;;;;;1.18;100.00;97885.91;105206;1301;22485;-76
2022/11/27 06:33:03;;;;;;;10.50;7.80;;;;;;;1.22;100.00;97888.98;105202;1305;22722;-76
2022/11/27 06:35:34;;;;;;;10.90;8.50;;;;;;;1.24;100.00;97890.20;105100;1304;22614;-76
2022/11/27 06:38:06;;;;;;;14.00;9.10;;;;;;;1.25;100.00;97893.46;105169;1305;22464;-76
2022/11/27 06:40:38;;;;;;;10.60;7.60;;;;;;;1.25;100.00;97894.91;105147;1304;22518;-76
2022/11/27 06:43:12;;;;;;;8.90;7.00;;;;;;;1.25;100.00;97896.08;105196;1293;25394;-76
2022/11/27 06:45:43;;;;;;;10.50;7.70;;;;;;;1.26;100.00;97894.59;105253;1296;23712;-76
2022/11/27 06:48:15;;;;;;;9.10;7.20;;;;;;;1.28;100.00;97898.86;105287;1288;22502;-76
2022/11/27 06:50:46;;;;;;;10.60;7.40;;;;;;;1.30;100.00;97898.83;105163;1305;22466;-76
2022/11/27 06:53:18;;;;;;;11.80;8.20;;;;;;;1.30;100.00;97895.79;105150;1297;25380;-76
2022/11/27 06:55:49;;;;;;;9.20;6.70;;;;;;;1.32;100.00;97896.76;105077;1304;22487;-76
2022/11/27 06:58:21;;;;;;;8.30;6.30;;;;;;;1.35;100.00;97898.15;105094;1297;22479;-76
2022/11/27 07:01:02;;;;;;;9.00;6.20;;;;;;;1.40;100.00;97893.60;105154;1297;22812;-76
2022/11/27 07:03:33;;;;;;;8.30;6.30;;;;;;;1.45;100.00;97895.23;105192;1278;22520;-76
2022/11/27 07:06:07;;;;;;;8.10;5.70;;;;;;;1.50;100.00;97900.89;105099;1304;25189;-76
2022/11/27 07:08:39;;;;;;;8.70;5.80;;;;;;;1.53;100.00;97900.95;105185;1304;22476;-76
2022/11/27 07:11:14;;;;;;;8.00;6.20;;;;;;;1.55;100.00;97900.11;105147;1281;22481;-76
2022/11/27 07:13:50;;;;;;;9.40;6.30;;;;;;;1.55;100.00;97898.88;105213;1304;24378;-76
2022/11/27 07:16:22;;;;;;;11.50;7.60;;;;;;;1.58;100.00;97891.55;105115;1288;25279;-76
2022/11/27 07:18:56;;;;;;;9.80;6.50;;;;;;;1.64;100.00;97889.86;105269;1304;22699;-76
2022/11/27 07:21:28;;;;;;;9.60;6.20;;;;;;;1.69;100.00;97882.66;105169;1284;22494;-76
2022/11/27 07:24:00;;;;;;;9.50;6.30;;;;;;;1.72;100.00;97882.89;105248;1304;22528;-76
2022/11/27 07:26:32;;;;;;;11.10;7.10;;;;;;;1.75;100.00;97885.36;105074;1305;23256;-76
2022/11/27 07:29:04;;;;;;;13.30;7.70;;;;;;;1.80;100.00;97885.58;105184;1304;25230;-76
2022/11/27 07:31:38;;;;;;;9.40;6.50;;;;;;;1.84;100.00;97876.94;105139;1297;25470;-76
2022/11/27 07:34:09;;;;;;;8.40;5.90;;;;;;;1.83;100.00;97878.41;105169;1276;23175;-76
2022/11/27 07:36:42;;;;;;;8.60;6.20;;;;;;;1.82;100.00;97878.07;105076;1280;22968;-76
2022/11/27 07:39:13;;;;;;;8.40;6.00;;;;;;;1.86;100.00;97878.44;105146;1305;22493;-76
2022/11/27 07:41:45;;;;;;;9.20;6.10;;;;;;;1.91;100.00;97875.20;105122;1304;22491;-76
2022/11/27 07:44:16;;;;;;;8.50;5.80;;;;;;;1.97;100.00;97873.11;105133;1304;22545;-76
2022/11/27 07:46:48;;;;;;;5.20;4.10;;;;;;;2.00;100.00;97870.20;105076;1291;24254;-76
2022/11/27 07:49:19;;;;;;;5.40;3.80;;;;;;;2.04;100.00;97868.96;105113;1293;24258;-76
2022/11/27 07:51:50;;;;;;;4.50;3.80;;;;;;;2.08;100.00;97865.39;105147;1305;22592;-76
2022/11/27 07:54:21;;;;;;;5.80;3.70;;;;;;;2.11;100.00;97874.42;105154;1305;24350;-76
2022/11/27 07:56:53;;;;;;;4.80;3.90;;;;;;;2.12;100.00;97879.20;105107;1305;25448;-76
2022/11/27 07:59:26;;;;;;;6.00;3.10;;;;;;;2.11;100.00;97879.42;105140;1290;22478;-76
2022/11/27 08:01:57;;;;;;;3.70;2.70;;;;;;;2.11;100.00;97876.19;105194;1304;24369;-76
2022/11/27 08:04:29;;;;;;;2.50;2.00;;;;;;;2.10;100.00;97877.44;105164;1290;22489;-76
2022/11/27 08:07:00;;;;;;;2.60;2.20;;;;;;;2.12;100.00;97882.13;105094;1290;22492;-76
2022/11/27 08:09:32;;;;;;;4.10;2.60;;;;;;;2.11;100.00;97879.86;105165;1296;25397;-76
2022/11/27 08:12:06;;;;;;;3.90;2.80;;;;;;;2.09;100.00;97879.65;105095;1305;22524;-76
2022/11/27 08:14:38;;;;;;;5.60;3.80;;;;;;;2.09;100.00;97878.68;105139;1283;24258;-76
2022/11/27 08:17:13;;;;;;;7.80;4.90;;;;;;;2.07;100.00;97876.98;105098;1305;22518;-76
2022/11/27 08:19:44;;;;;;;8.20;5.60;;;;;;;2.11;100.00;97877.55;105184;1297;22476;-76
2022/11/27 08:22:19;;;;;;;7.40;4.90;;;;;;;2.12;100.00;97878.64;105136;1305;22835;-76
2022/11/27 08:24:51;;;;;;;24.90;13.80;;;;;;;2.10;100.00;97880.98;105090;1304;22515;-76
2022/11/27 08:27:23;;;;;;;33.90;20.10;;;;;;;2.03;100.00;97876.73;105126;1297;23004;-76
2022/11/27 08:29:54;;;;;;;16.20;8.70;;;;;;;2.01;100.00;97879.77;105105;1305;22483;-76
2022/11/27 08:32:28;;;;;;;17.80;10.00;;;;;;;1.96;100.00;97879.39;105129;1303;22475;-76
2022/11/27 08:34:59;;;;;;;12.50;7.70;;;;;;;1.91;100.00;97879.39;105093;1290;25398;-76
2022/11/27 08:37:30;;;;;;;10.90;6.70;;;;;;;1.88;100.00;97878.49;105074;1305;22688;-76
2022/11/27 08:40:05;;;;;;;11.40;6.90;;;;;;;1.85;100.00;97878.44;105157;1297;22579;-76
2022/11/27 08:42:37;;;;;;;11.00;8.90;;;;;;;1.83;100.00;97878.06;105172;1305;22625;-76
2022/11/27 08:45:10;;;;;;;17.10;14.40;;;;;;;1.86;100.00;97876.88;105092;1290;23730;-75
2022/11/27 08:47:42;;;;;;;11.30;7.60;;;;;;;1.94;100.00;97875.99;105147;1305;23784;-76
2022/11/27 08:50:13;;;;;;;11.00;7.20;;;;;;;2.04;100.00;97876.65;105144;1305;22626;-76
2022/11/27 08:52:45;;;;;;;10.00;6.60;;;;;;;2.06;100.00;97874.81;105130;1297;23275;-76
2022/11/27 08:55:16;;;;;;;12.00;7.30;;;;;;;2.04;100.00;97871.63;105085;1296;25407;-76
2022/11/27 08:57:48;;;;;;;9.70;6.60;;;;;;;2.10;100.00;97871.77;105353;1279;22572;-76
2022/11/27 09:00:23;;;;;;;10.20;7.10;;;;;;;2.18;100.00;97869.45;105113;1282;22905;-76
2022/11/27 09:02:54;;;;;;;12.30;7.50;;;;;;;2.26;100.00;97874.04;105131;1281;23704;-76
2022/11/27 09:05:26;;;;;;;10.80;6.30;;;;;;;2.30;100.00;97873.49;105114;1277;22464;-76
2022/11/27 09:08:01;;;;;;;7.40;5.10;;;;;;;2.35;100.00;97876.20;105180;1300;22487;-76
2022/11/27 09:10:32;;;;;;;8.40;5.50;;;;;;;2.42;100.00;97874.27;105206;1303;22479;-76
2022/11/27 09:13:04;;;;;;;8.60;5.80;;;;;;;2.46;100.00;97874.04;105115;1305;22519;-76
2022/11/27 09:15:37;;;;;;;8.50;5.20;;;;;;;2.53;100.00;97874.96;105101;1303;22535;-76
2022/11/27 09:18:09;;;;;;;7.80;4.80;;;;;;;2.62;100.00;97872.40;105134;1275;22441;-76
2022/11/27 09:20:44;;;;;;;7.30;4.60;;;;;;;2.66;100.00;97870.92;105141;1281;22499;-76
2022/11/27 09:23:15;;;;;;;6.30;4.70;;;;;;;2.70;100.00;97868.58;105196;1290;22460;-76
2022/11/27 09:25:48;;;;;;;7.20;4.70;;;;;;;2.76;100.00;97865.56;105265;1288;22457;-77
2022/11/27 09:28:20;;;;;;;8.70;5.50;;;;;;;2.73;100.00;97863.35;105145;1300;22581;-76
2022/11/27 09:30:56;;;;;;;7.00;5.10;;;;;;;2.73;100.00;97863.14;105167;1286;25264;-77
2022/11/27 09:33:30;;;;;;;8.00;5.50;;;;;;;2.83;100.00;97865.18;105229;1305;22539;-76
2022/11/27 09:36:06;;;;;;;6.30;4.60;;;;;;;2.89;100.00;97861.01;105326;1294;22414;-76
2022/11/27 09:38:38;;;;;;;7.90;5.50;;;;;;;2.97;100.00;97863.56;105381;1305;22497;-76
2022/11/27 09:41:27;;;;;;;8.60;5.60;;;;;;;3.03;100.00;97866.80;105384;1305;22460;-76
2022/11/27 09:44:05;;;;;;;8.80;5.30;;;;;;;3.04;100.00;97863.48;105402;1304;22629;-76
2022/11/27 09:46:40;;;;;;;7.10;4.90;;;;;;;3.08;100.00;97863.20;105343;1305;25360;-76
2022/11/27 09:49:20;;;;;;;7.40;5.10;;;;;;;3.14;100.00;97862.79;105420;1293;22495;-76
2022/11/27 09:51:56;;;;;;;5.70;3.80;;;;;;;3.20;100.00;97858.91;105431;1301;24264;-77
2022/11/27 09:54:32;;;;;;;4.20;3.10;;;;;;;3.21;100.00;97855.33;105403;1305;25244;-77
2022/11/27 09:57:05;;;;;;;4.80;3.20;;;;;;;3.24;100.00;97853.04;105327;1296;22517;-76
2022/11/27 09:59:43;;;;;;;4.50;3.10;;;;;;;3.27;100.00;97848.77;105388;1283;22456;-76
2022/11/27 10:02:24;;;;;;;6.10;3.60;;;;;;;3.32;100.00;97845.91;105407;1288;22439;-76
2022/11/27 10:04:59;;;;;;;5.60;3.60;;;;;;;3.35;100.00;97842.95;105348;1296;24230;-77
2022/11/27 10:07:41;;;;;;;5.90;2.70;;;;;;;3.33;100.00;97845.41;105370;1298;25266;-77
2022/11/27 10:10:31;;;;;;;5.40;3.90;;;;;;;3.36;100.00;97834.80;105397;1297;22468;-77
2022/11/27 10:13:14;;;;;;;6.50;4.40;;;;;;;3.35;100.00;97829.92;105391;1290;22523;-77
2022/11/27 10:15:54;;;;;;;7.50;5.70;;;;;;;3.29;100.00;97830.75;105355;1282;22530;-77
2022/11/27 10:18:34;;;;;;;10.20;6.90;;;;;;;3.22;100.00;97829.52;105367;1303;22459;-76
2022/11/27 10:21:15;;;;;;;9.90;7.40;;;;;;;3.16;100.00;97829.04;105439;1304;25378;-77
2022/11/27 10:23:56;;;;;;;8.50;6.50;;;;;;;3.13;100.00;97830.50;105418;1305;22578;-76
2022/11/27 10:26:34;;;;;;;10.70;6.30;;;;;;;3.10;100.00;97831.38;105360;1286;22657;-76
2022/11/27 10:29:24;;;;;;;10.30;6.60;;;;;;;3.10;100.00;97833.79;105396;1305;22482;-77
2022/11/27 10:32:02;;;;;;;8.40;5.20;;;;;;;3.17;100.00;97833.48;105436;1290;22478;-77
2022/11/27 10:34:38;;;;;;;7.30;5.10;;;;;;;3.22;100.00;97831.27;105409;1298;22484;-76
2022/11/27 10:37:18;;;;;;;6.10;4.10;;;;;;;3.27;100.00;97834.05;105344;1305;23340;-76
2022/11/27 10:39:54;;;;;;;4.70;3.60;;;;;;;3.34;100.00;97834.61;105378;1305;22623;-76
2022/11/27 10:42:32;;;;;;;5.00;3.70;;;;;;;3.37;100.00;97827.70;105387;1297;22659;-77
2022/11/27 10:45:06;;;;;;;6.70;3.80;;;;;;;3.39;100.00;97819.42;105373;1291;22480;-77
2022/11/27 10:47:40;;;;;;;6.60;4.00;;;;;;;3.40;100.00;97819.63;105357;1304;22612;-77
2022/11/27 10:50:15;;;;;;;5.10;3.70;;;;;;;3.33;100.00;97815.50;105374;1305;22478;-77
2022/11/27 10:52:54;;;;;;;5.00;3.80;;;;;;;3.26;99.98;97821.31;105464;1294;22512;-77
2022/11/27 10:55:35;;;;;;;6.00;4.40;;;;;;;3.21;99.62;97818.52;105402;1282;23895;-77
2022/11/27 10:58:14;;;;;;;7.00;4.50;;;;;;;3.24;99.99;97816.35;105563;1304;25246;-77
2022/11/27 11:00:49;;;;;;;4.90;3.30;;;;;;;3.29;100.00;97812.48;105518;1305;22472;-77
2022/11/27 11:03:21;;;;;;;4.30;2.90;;;;;;;3.34;100.00;97809.52;105445;1277;24233;-76
2022/11/27 11:06:02;;;;;;;4.10;3.10;;;;;;;3.38;100.00;97804.81;105467;1297;22477;-77
2022/11/27 11:08:36;;;;;;;4.40;3.40;;;;;;;3.42;100.00;97805.91;105346;1305;22668;-77
2022/11/27 11:11:09;;;;;;;6.10;5.00;;;;;;;3.46;100.00;97800.89;105398;1297;22479;-77
2022/11/27 11:13:49;;;;;;;7.10;5.00;;;;;;;3.45;99.95;97800.94;105371;1282;22464;-76
2022/11/27 11:16:24;;;;;;;16.60;11.70;;;;;;;3.41;99.87;97799.83;105332;1283;22918;-77
2022/11/27 11:18:57;;;;;;;20.80;15.00;;;;;;;3.40;99.99;97800.59;105363;1293;22916;-77
2022/11/27 11:21:34;;;;;;;21.80;15.50;;;;;;;3.42;100.00;97801.88;105564;1284;22539;-76
2022/11/27 11:24:15;;;;;;;30.70;21.70;;;;;;;3.44;100.00;97803.40;105401;1300;25275;-76
2022/11/27 11:26:52;;;;;;;15.30;11.40;;;;;;;3.42;100.00;97800.98;105324;1275;22487;-76
2022/11/27 11:29:32;;;;;;;10.20;7.30;;;;;;;3.39;99.99;97799.23;105443;1287;22478;-77
2022/11/27 11:32:10;;;;;;;10.40;7.00;;;;;;;3.36;100.00;97794.80;105422;1288;22494;-77
2022/11/27 11:34:47;;;;;;;9.80;6.90;;;;;;;3.31;99.67;97786.67;105345;1288;25242;-77
2022/11/27 11:37:27;;;;;;;10.70;7.30;;;;;;;3.25;99.55;97781.20;105330;1293;22461;-77
2022/11/27 11:40:02;;;;;;;11.20;8.80;;;;;;;3.30;99.88;97777.20;105332;1287;24887;-76
2022/11/27 11:42:37;;;;;;;15.70;11.30;;;;;;;3.32;100.00;97774.73;105349;1283;22623;-76
2022/11/27 11:45:20;;;;;;;19.30;13.00;;;;;;;3.34;100.00;97778.52;105367;1297;22488;-76
2022/11/27 11:47:54;;;;;;;19.20;12.70;;;;;;;3.35;100.00;97778.84;105397;1304;22481;-77
2022/11/27 11:50:34;;;;;;;19.50;13.00;;;;;;;3.37;100.00;97779.11;105314;1286;23824;-76
2022/11/27 11:53:15;;;;;;;15.90;12.20;;;;;;;3.39;100.00;97782.20;105401;1296;22530;-76
2022/11/27 11:56:04;;;;;;;17.80;11.90;;;;;;;3.40;100.00;97781.02;105460;1304;22538;-77